الصفحة الرئيسية
METAR-TAF:

METAR-TAF

مطار :

مطار إنتشون الدولي

سيول-إنشيون, كوريا الجنوبية

دائرة عرض: 37-28N, خط طول: 126-27E, ارتفاع: 7 متر

مراقبة الطقس الحالي

تاريخ ووقت الإصدار 20 دقيقة قبل الساعة 07:30UTC
ريح 8 عقدة من الغرب
درجة الحرارة 13°درجة مئوية
الرطوبة 33%
ضغط 1016 hPa
الرؤية 10 كم أو أكثر
الغيوم لا تقل 1500 م ولا وجود لمزنة ركامية السحاب الأسود

METAR: RKSI 310730Z 28008KT CAVOK 13/M03 Q1016 NOSIG

زمن: 16:50 (07:50 UTC)

توقعات

تاريخ ووقت الإصدار 2ساعات و 50 دقيقة قبل الساعة 05:00UTC
التوقعات صالحة من31 الساعة 06 UTC إلى 01 الساعة 12 UTC
ريح 8 عقدة من الغرب/الشمال الغربي
الرؤية 10 كم أو أكثر
الغيوم لا تقل 1500 م ولا وجود لمزنة ركامية السحاب الأسود
أصبح
من 31 الساعة 15 UTC إلى 31 الساعة 16 UTC
ريح 10 عقدة من الشمال
أصبح
من 01 الساعة 02 UTC إلى 01 الساعة 03 UTC
ريح 15 عقدة من الشمال الغربي تتزايد حتى 25 عقدة
أصبح
من 01 الساعة 10 UTC إلى 01 الساعة 11 UTC
ريح 10 عقدة من الشمال

TAF: RKSI 310500Z 3106/0112 29008KT CAVOK TN07/3121Z TX16/0106Z BECMG 3115/3116 35010KT BECMG 0102/0103 32015G25KT BECMG 0110/0111 36010KT

أرصاد الطقس والتوقعات من أكثر من 4000 مطار (تقارير الطقس للمطار METAR والتنبؤ بالطقس بالمطارTAF).

المحطات المتاحة هي النقط الصفراء والحمراء على الخريطة.

حرك المؤشر فوق النقطة لمعرفة اسم المحطة.

ثم انقر لمعرفة أرصاد وتوقعات الطقس.

لتغيير الخارطة: اضغط على الأزرار الخضراء مع رمز الصليب الأسود للتكبير. على الزر الأخضر مع شرطة للتصغير، أو على الأسهم الخضراء للخرائط المجاورة.


METAR-TAF: